BarenTS Sea — 9VAP5 — position and weather

sailwx.info

Track history (hours):
 
Tides and Currents Weather Stations Pressure Air Temp Water Temp Dewpoint Dewpoint Depression Visibility Wind Speed Wind Dir Waves Ship Positions

BarenTS Sea

Last reported at 2016-Apr-04 17:32 UTC. Time now 2016-May-02 19:28 UTC.
Position N 01°16' E 104°14'.
Warning: this ship's position is 28 days out of date.

Length 248 m; draft 8.1 m.

Type: Tanker. MMSI: 563909000.

Date/timePositionNaut miles runAvg speedWind from/ knotsBaromVisibWave heightAir tempDewpointWater temp
2016-Apr-04 17:32N 01°16' E 104°14'6 6.5
2016-Apr-04 16:33N 01°15' E 104°08'4 4.3
2016-Apr-04 15:34N 01°15' E 104°04'4 4.3
2016-Apr-04 14:33N 01°14' E 103°59'4 3.0
2016-Apr-04 13:17N 01°16' E 103°56'0 0.1
2016-Apr-04 12:32N 01°16' E 103°56'0 0.1
2016-Apr-04 11:29N 01°16' E 103°56'0 0.1
2016-Apr-04 10:26N 01°16' E 103°56'0 0.1
2016-Apr-04 09:26N 01°16' E 103°56'0 0.2
2016-Apr-04 08:08N 01°16' E 103°56'0 0.1
2016-Apr-04 07:17N 01°16' E 103°56'0 0.0
2016-Apr-04 06:32N 01°16' E 103°56'0 0.1
2016-Apr-04 05:26N 01°16' E 103°56'0 0.1
2016-Apr-04 04:32N 01°16' E 103°56'0 0.0
2016-Apr-04 03:32N 01°16' E 103°56'0 0.2
2016-Apr-04 02:32N 01°16' E 103°56'0 0.1
2016-Apr-04 01:32N 01°16' E 103°56'0 0.0
2016-Apr-03 23:32N 01°16' E 103°56'0 0.0
2016-Apr-03 22:32N 01°16' E 103°56'0 0.0
2016-Apr-03 21:32N 01°16' E 103°56'0 0.0
2016-Apr-03 20:32N 01°16' E 103°56'0 0.0
2016-Apr-03 19:26N 01°16' E 103°56'0 0.0
2016-Apr-03 18:32N 01°16' E 103°56'0 0.0
2016-Apr-03 17:32N 01°16' E 103°56'0 0.0
2016-Apr-03 16:32N 01°16' E 103°56'0 0.0
2016-Apr-03 15:32N 01°16' E 103°56'0 0.0
2016-Apr-03 14:26N 01°16' E 103°56'0 0.0
2016-Apr-03 13:32N 01°16' E 103°56'0 0.0
2016-Apr-03 12:20N 01°16' E 103°56'0 0.0
2016-Apr-03 11:32N 01°16' E 103°56'0 0.0
2016-Apr-03 10:32N 01°16' E 103°56'0 0.1
2016-Apr-03 09:32N 01°16' E 103°56'0 0.2
2016-Apr-03 08:32N 01°16' E 103°56'0 0.1
2016-Apr-03 06:26N 01°16' E 103°56'0 0.1
2016-Apr-03 05:32N 01°16' E 103°56'0 0.1
2016-Apr-03 04:33N 01°16' E 103°56'3 2.5
2016-Apr-03 03:33N 01°15' E 103°54'9 8.8
2016-Apr-03 02:33N 01°15' E 103°45'4 0.1
2016-Apr-01 20:20N 01°14' E 103°42'3 4.2
2016-Apr-01 19:33N 01°15' E 103°45'0 0.0
2016-Mar-31 08:20N 01°14' E 103°45'1 0.9
2016-Mar-31 07:34N 01°15' E 103°46'7 6.3
2016-Mar-31 06:31N 01°13' E 103°52'4 4.1
2016-Mar-31 05:31N 01°15' E 103°55'0 0.1
2016-Mar-31 04:13N 01°15' E 103°55'0 0.1
2016-Mar-31 03:31N 01°15' E 103°55'0 0.0
2016-Mar-31 02:13N 01°15' E 103°55'0 0.0
2016-Mar-31 01:31N 01°15' E 103°55'0 0.0
2016-Mar-30 23:31N 01°15' E 103°55'0 0.0
2016-Mar-30 22:31N 01°15' E 103°55'0 0.1
2016-Mar-30 21:31N 01°15' E 103°55'0 0.1
2016-Mar-30 20:31N 01°15' E 103°55'0 0.1
2016-Mar-30 19:28N 01°15' E 103°55'0 0.0
2016-Mar-30 18:31N 01°15' E 103°55'0 0.1
2016-Mar-30 17:25N 01°15' E 103°55'0 0.0
2016-Mar-30 16:31N 01°15' E 103°55'0 0.0
2016-Mar-30 15:31N 01°15' E 103°55'0 0.0
2016-Mar-30 14:25N 01°15' E 103°55'0 0.0
2016-Mar-30 13:22N 01°15' E 103°55'0 0.0
2016-Mar-30 12:13N 01°15' E 103°55'0 0.0
2016-Mar-30 11:25N 01°15' E 103°55'0 0.0
2016-Mar-30 10:28N 01°15' E 103°55'0 0.0
2016-Mar-30 09:04N 01°15' E 103°55'0 0.0
2016-Mar-30 08:25N 01°15' E 103°55'0 0.0
2016-Mar-30 06:25N 01°15' E 103°55'0 0.0
2016-Mar-30 05:31N 01°15' E 103°55'0 0.0
2016-Mar-30 04:19N 01°15' E 103°55'0 0.1
2016-Mar-30 03:25N 01°15' E 103°55'0 0.1
2016-Mar-30 02:31N 01°15' E 103°55'0 0.1
2016-Mar-30 01:25N 01°15' E 103°55'0 0.0
2016-Mar-30 00:19N 01°15' E 103°55'0 0.0
2016-Mar-29 23:31N 01°15' E 103°55'0 0.0
2016-Mar-29 22:25N 01°15' E 103°55'0 0.0
2016-Mar-29 21:31N 01°15' E 103°55'0 0.2
2016-Mar-29 20:31N 01°15' E 103°55'0 0.1
2016-Mar-29 19:31N 01°15' E 103°55'0 0.1
2016-Mar-29 18:25N 01°15' E 103°55'0 0.0
2016-Mar-29 17:25N 01°15' E 103°55'0 0.0
2016-Mar-29 16:31N 01°15' E 103°55'0 0.0
2016-Mar-29 15:31N 01°15' E 103°55'0 0.0
2016-Mar-29 14:13N 01°15' E 103°55'0 0.0
2016-Mar-29 11:22N 01°15' E 103°55'0 0.0
2016-Mar-29 09:31N 01°15' E 103°55'0 0.1
2016-Mar-29 08:25N 01°15' E 103°55'1 1.1
2016-Mar-29 07:33N 01°15' E 103°56'1 1.2
2016-Mar-29 06:33N 01°14' E 103°57'8 8.2
2016-Mar-29 05:33N 01°11' E 103°49'90 9.7
2016-Mar-28 20:18N 01°47' E 102°27'  
Track history (hours):
 
Tides and Currents Weather Stations Pressure Air Temp Water Temp Dewpoint Dewpoint Depression Visibility Wind Speed Wind Dir Waves Ship Positions

BarenTS Sea

Last reported at 2016-Apr-04 17:32 UTC. Time now 2016-May-02 19:28 UTC.
Position N 01°16' E 104°14'.
Warning: this ship's position is 28 days out of date.

Length 248 m; draft 8.1 m.

Type: Tanker. MMSI: 563909000.

Date/timePositionNaut miles runAvg speedWind from/ knotsBaromVisibWave heightAir tempDewpointWater temp
2016-Apr-04 17:32N 01°16' E 104°14'6 6.5
2016-Apr-04 16:33N 01°15' E 104°08'4 4.3
2016-Apr-04 15:34N 01°15' E 104°04'4 4.3
2016-Apr-04 14:33N 01°14' E 103°59'4 3.0
2016-Apr-04 13:17N 01°16' E 103°56'0 0.1
2016-Apr-04 12:32N 01°16' E 103°56'0 0.1
2016-Apr-04 11:29N 01°16' E 103°56'0 0.1
2016-Apr-04 10:26N 01°16' E 103°56'0 0.1
2016-Apr-04 09:26N 01°16' E 103°56'0 0.2
2016-Apr-04 08:08N 01°16' E 103°56'0 0.1
2016-Apr-04 07:17N 01°16' E 103°56'0 0.0
2016-Apr-04 06:32N 01°16' E 103°56'0 0.1
2016-Apr-04 05:26N 01°16' E 103°56'0 0.1
2016-Apr-04 04:32N 01°16' E 103°56'0 0.0
2016-Apr-04 03:32N 01°16' E 103°56'0 0.2
2016-Apr-04 02:32N 01°16' E 103°56'0 0.1
2016-Apr-04 01:32N 01°16' E 103°56'0 0.0
2016-Apr-03 23:32N 01°16' E 103°56'0 0.0
2016-Apr-03 22:32N 01°16' E 103°56'0 0.0
2016-Apr-03 21:32N 01°16' E 103°56'0 0.0
2016-Apr-03 20:32N 01°16' E 103°56'0 0.0
2016-Apr-03 19:26N 01°16' E 103°56'0 0.0
2016-Apr-03 18:32N 01°16' E 103°56'0 0.0
2016-Apr-03 17:32N 01°16' E 103°56'0 0.0
2016-Apr-03 16:32N 01°16' E 103°56'0 0.0
2016-Apr-03 15:32N 01°16' E 103°56'0 0.0
2016-Apr-03 14:26N 01°16' E 103°56'0 0.0
2016-Apr-03 13:32N 01°16' E 103°56'0 0.0
2016-Apr-03 12:20N 01°16' E 103°56'0 0.0
2016-Apr-03 11:32N 01°16' E 103°56'0 0.0
2016-Apr-03 10:32N 01°16' E 103°56'0 0.1
2016-Apr-03 09:32N 01°16' E 103°56'0 0.2
2016-Apr-03 08:32N 01°16' E 103°56'0 0.1
2016-Apr-03 06:26N 01°16' E 103°56'0 0.1
2016-Apr-03 05:32N 01°16' E 103°56'0 0.1
2016-Apr-03 04:33N 01°16' E 103°56'3 2.5
2016-Apr-03 03:33N 01°15' E 103°54'9 8.8
2016-Apr-03 02:33N 01°15' E 103°45'4 0.1
2016-Apr-01 20:20N 01°14' E 103°42'3 4.2
2016-Apr-01 19:33N 01°15' E 103°45'0 0.0
2016-Mar-31 08:20N 01°14' E 103°45'1 0.9
2016-Mar-31 07:34N 01°15' E 103°46'7 6.3
2016-Mar-31 06:31N 01°13' E 103°52'4 4.1
2016-Mar-31 05:31N 01°15' E 103°55'0 0.1
2016-Mar-31 04:13N 01°15' E 103°55'0 0.1
2016-Mar-31 03:31N 01°15' E 103°55'0 0.0
2016-Mar-31 02:13N 01°15' E 103°55'0 0.0
2016-Mar-31 01:31N 01°15' E 103°55'0 0.0
2016-Mar-30 23:31N 01°15' E 103°55'0 0.0
2016-Mar-30 22:31N 01°15' E 103°55'0 0.1
2016-Mar-30 21:31N 01°15' E 103°55'0 0.1
2016-Mar-30 20:31N 01°15' E 103°55'0 0.1
2016-Mar-30 19:28N 01°15' E 103°55'0 0.0
2016-Mar-30 18:31N 01°15' E 103°55'0 0.1
2016-Mar-30 17:25N 01°15' E 103°55'0 0.0
2016-Mar-30 16:31N 01°15' E 103°55'0 0.0
2016-Mar-30 15:31N 01°15' E 103°55'0 0.0
2016-Mar-30 14:25N 01°15' E 103°55'0 0.0
2016-Mar-30 13:22N 01°15' E 103°55'0 0.0
2016-Mar-30 12:13N 01°15' E 103°55'0 0.0
2016-Mar-30 11:25N 01°15' E 103°55'0 0.0
2016-Mar-30 10:28N 01°15' E 103°55'0 0.0
2016-Mar-30 09:04N 01°15' E 103°55'0 0.0
2016-Mar-30 08:25N 01°15' E 103°55'0 0.0
2016-Mar-30 06:25N 01°15' E 103°55'0 0.0
2016-Mar-30 05:31N 01°15' E 103°55'0 0.0
2016-Mar-30 04:19N 01°15' E 103°55'0 0.1
2016-Mar-30 03:25N 01°15' E 103°55'0 0.1
2016-Mar-30 02:31N 01°15' E 103°55'0 0.1
2016-Mar-30 01:25N 01°15' E 103°55'0 0.0
2016-Mar-30 00:19N 01°15' E 103°55'0 0.0
2016-Mar-29 23:31N 01°15' E 103°55'0 0.0
2016-Mar-29 22:25N 01°15' E 103°55'0 0.0
2016-Mar-29 21:31N 01°15' E 103°55'0 0.2
2016-Mar-29 20:31N 01°15' E 103°55'0 0.1
2016-Mar-29 19:31N 01°15' E 103°55'0 0.1
2016-Mar-29 18:25N 01°15' E 103°55'0 0.0
2016-Mar-29 17:25N 01°15' E 103°55'0 0.0
2016-Mar-29 16:31N 01°15' E 103°55'0 0.0
2016-Mar-29 15:31N 01°15' E 103°55'0 0.0
2016-Mar-29 14:13N 01°15' E 103°55'0 0.0
2016-Mar-29 11:22N 01°15' E 103°55'0 0.0
2016-Mar-29 09:31N 01°15' E 103°55'0 0.1
2016-Mar-29 08:25N 01°15' E 103°55'1 1.1
2016-Mar-29 07:33N 01°15' E 103°56'1 1.2
2016-Mar-29 06:33N 01°14' E 103°57'8 8.2
2016-Mar-29 05:33N 01°11' E 103°49'90 9.7
2016-Mar-28 20:18N 01°47' E 102°27'  

Dump ship's entire track history